Time;durP1;ratioP1;P1;durP2;ratioP2;P2;SDS_P1;SDS_P2;PMS_P1;PMS_P2;Temp;Humidity;BMP_temperature;BMP_pressure;BME280_temperature;BME280_humidity;BME280_pressure;Samples;Min_cycle;Max_cycle;Signal;HPM_P1;HPM_P2
2023/08/31 00:00:04;;;;;;;2.15;1.30;;;14.60;99.90;;;-141.84;85.68;20149.19;5022100;28;20241;-60
2023/08/31 00:02:34;;;;;;;2.00;1.27;;;14.50;99.90;;;-141.84;86.45;20120.75;5015337;28;20205;-62
2023/08/31 00:05:02;;;;;;;1.73;1.38;;;14.40;99.90;;;-141.84;86.48;20082.13;5022841;28;20230;-60
2023/08/31 00:07:30;;;;;;;1.83;1.50;;;14.40;99.90;;;-141.84;84.70;20155.28;5022558;28;20725;-62
2023/08/31 00:09:59;;;;;;;1.45;1.33;;;14.40;99.90;;;-141.84;85.68;20104.47;5022300;28;20701;-61
2023/08/31 00:12:27;;;;;;;1.27;1.17;;;14.30;99.90;;;-141.84;85.41;20106.50;5028181;28;20739;-61
2023/08/31 00:14:57;;;;;;;1.50;1.30;;;14.30;99.90;;;-141.84;85.42;20110.56;5042026;28;20205;-62
2023/08/31 00:17:25;;;;;;;4.00;1.50;;;14.20;99.90;;;-141.84;86.82;20069.94;5038918;28;20666;-61
2023/08/31 00:19:55;;;;;;;2.03;1.55;;;14.10;99.90;;;-141.84;87.29;20090.25;5022253;28;20234;-62
2023/08/31 00:22:23;;;;;;;1.73;1.63;;;14.10;99.90;;;-141.84;86.18;20098.38;5022973;28;20254;-61
2023/08/31 00:24:52;;;;;;;1.77;1.50;;;14.10;99.90;;;-141.84;86.78;20078.06;5014701;28;20272;-61
2023/08/31 00:27:21;;;;;;;1.85;1.60;;;14.10;99.90;;;-141.84;88.14;20053.66;5021949;28;20260;-61
2023/08/31 00:29:50;;;;;;;1.83;1.10;;;14.00;99.90;;;-141.84;88.60;20061.78;5022667;28;20222;-61
2023/08/31 00:32:22;;;;;;;2.70;1.52;;;14.10;99.90;;;-141.84;88.48;20098.38;5024898;28;20712;-61
2023/08/31 00:34:50;;;;;;;2.05;1.50;;;14.10;99.90;;;-141.84;88.98;20071.97;5018187;28;20411;-61
2023/08/31 00:37:21;;;;;;;2.85;1.83;;;14.10;99.90;;;-141.84;88.13;20057.72;5033962;28;20244;-62
2023/08/31 00:39:51;;;;;;;2.03;1.75;;;14.00;99.90;;;-141.84;88.86;20025.22;5046326;28;20225;-61
2023/08/31 00:42:19;;;;;;;2.78;1.65;;;14.00;99.90;;;-141.84;89.57;20027.25;5046209;28;20229;-62
2023/08/31 00:44:48;;;;;;;2.42;1.73;;;14.00;99.90;;;-141.84;90.05;20069.94;5038473;28;20276;-60
2023/08/31 00:47:17;;;;;;;2.00;1.60;;;14.00;99.90;;;-141.84;89.66;20041.47;5046667;28;20296;-61
2023/08/31 00:49:45;;;;;;;2.28;1.42;;;14.00;99.90;;;-141.84;89.23;20061.78;5046342;28;20321;-61
2023/08/31 00:52:13;;;;;;;1.80;1.38;;;14.00;99.90;;;-141.84;88.02;20049.59;5029482;28;20720;-61
2023/08/31 00:54:43;;;;;;;1.92;1.45;;;14.00;99.90;;;-141.84;87.19;20053.66;5018415;28;20440;-62
2023/08/31 00:57:11;;;;;;;2.08;1.50;;;14.00;99.90;;;-141.84;87.53;20041.47;5026160;28;20324;-61
2023/08/31 00:59:39;;;;;;;1.50;1.40;;;14.00;99.90;;;-141.84;88.01;20051.63;5026272;28;20212;-59
2023/08/31 01:02:20;;;;;;;1.55;1.38;;;13.90;99.90;;;-141.84;86.60;20049.59;5025713;28;20312;-61
2023/08/31 01:05:04;;;;;;;1.60;1.42;;;13.90;99.90;;;-141.84;87.36;20002.84;5018575;28;20803;-62
2023/08/31 01:07:46;;;;;;;2.25;1.23;;;13.90;99.90;;;-141.84;87.85;20027.25;5025856;28;20260;-62
2023/08/31 01:10:25;;;;;;;1.60;1.50;;;13.80;99.90;;;-141.84;87.53;20029.28;5026083;28;20419;-62
2023/08/31 01:13:03;;;;;;;1.77;1.30;;;13.90;99.90;;;-141.84;87.83;19996.75;5028467;28;20517;-61
2023/08/31 01:15:33;;;;;;;1.90;1.45;;;13.90;99.90;;;-141.84;88.77;20002.84;5045762;28;20290;-62
2023/08/31 01:18:03;;;;;;;1.85;1.58;;;13.80;99.90;;;-141.84;88.10;19990.66;5036514;28;20262;-61
2023/08/31 01:20:39;;;;;;;1.52;1.42;;;13.80;99.90;;;-141.84;87.99;20002.84;5018222;28;20279;-61
2023/08/31 01:23:14;;;;;;;2.00;1.60;;;13.90;99.90;;;-141.84;87.04;20035.38;5025695;28;20320;-61
2023/08/31 01:25:44;;;;;;;2.17;1.50;;;14.00;99.90;;;-141.84;87.46;20053.66;5025621;28;20670;-61
2023/08/31 01:28:13;;;;;;;2.85;1.40;;;14.00;99.90;;;-141.84;88.38;20031.31;5025106;28;20604;-60
2023/08/31 01:30:41;;;;;;;1.40;1.30;;;14.00;99.90;;;-141.84;87.71;20051.63;5017753;28;20808;-62
2023/08/31 01:33:09;;;;;;;2.35;1.42;;;14.00;99.90;;;-141.84;87.95;20031.31;5029206;28;20229;-62
2023/08/31 01:35:44;;;;;;;1.50;1.40;;;14.00;99.90;;;-141.84;87.37;20031.31;5045866;28;20656;-61
2023/08/31 01:38:21;;;;;;;2.78;1.80;;;14.00;99.90;;;-141.84;87.05;20074.00;5045101;28;20283;-62
2023/08/31 01:41:00;;;;;;;2.28;1.20;;;14.00;99.90;;;-141.84;86.76;20045.53;5037435;28;20245;-61
2023/08/31 01:43:32;;;;;;;2.58;1.30;;;14.00;99.90;;;-141.84;87.24;20004.88;5028088;28;20234;-61
2023/08/31 01:46:00;;;;;;;1.52;1.13;;;13.90;99.90;;;-141.84;87.55;19986.59;5024989;28;20321;-61
2023/08/31 01:48:29;;;;;;;1.30;1.20;;;13.90;99.90;;;-141.84;88.37;20004.88;5040353;28;20275;-60
2023/08/31 01:50:57;;;;;;;2.10;1.15;;;13.80;99.90;;;-141.84;88.81;19992.69;5039382;28;20220;-62
2023/08/31 01:53:26;;;;;;;1.67;1.35;;;13.70;99.90;;;-141.84;89.34;19974.41;5025576;28;20267;-61
2023/08/31 01:55:55;;;;;;;1.35;1.23;;;13.70;99.90;;;-141.84;89.00;20006.91;5024947;28;20320;-61
2023/08/31 01:58:23;;;;;;;1.80;1.30;;;13.70;99.90;;;-141.84;89.11;19994.72;5024444;28;20824;-62
2023/08/31 02:00:52;;;;;;;1.35;1.10;;;13.70;99.90;;;-141.84;89.14;20015.03;5017400;28;20262;-61
2023/08/31 02:03:20;;;;;;;2.33;1.70;;;13.60;99.90;;;-141.84;89.26;19976.44;5024655;28;20230;-60
2023/08/31 02:05:48;;;;;;;1.48;1.38;;;13.60;99.90;;;-141.84;89.27;19952.03;5025032;28;20229;-61
2023/08/31 02:08:17;;;;;;;1.33;1.23;;;13.60;99.90;;;-141.84;87.42;20029.28;5024915;28;20249;-61
2023/08/31 02:10:47;;;;;;;1.80;1.50;;;13.60;99.90;;;-141.84;87.02;20041.47;5017190;28;20238;-62
2023/08/31 02:13:17;;;;;;;3.10;1.80;;;13.60;99.90;;;-141.84;87.67;20008.94;5036222;28;20320;-62
2023/08/31 02:15:45;;;;;;;2.00;1.80;;;13.60;99.90;;;-141.84;87.14;19990.66;5044508;28;20316;-60
2023/08/31 02:18:13;;;;;;;1.40;1.30;;;13.50;99.90;;;-141.84;87.03;19954.06;5033785;28;20693;-61
2023/08/31 02:20:41;;;;;;;2.10;1.73;;;13.50;99.90;;;-141.84;86.85;20010.97;5017426;28;20225;-61
2023/08/31 02:23:11;;;;;;;1.67;1.58;;;13.50;99.90;;;-141.84;88.01;19968.31;5024411;28;20276;-61
2023/08/31 02:25:40;;;;;;;1.52;1.42;;;13.50;99.90;;;-141.84;88.69;19952.03;5024737;28;20233;-62
2023/08/31 02:28:08;;;;;;;1.40;1.30;;;13.50;99.90;;;-141.84;88.44;19972.38;5024334;28;20230;-61
2023/08/31 02:30:38;;;;;;;2.47;1.20;;;13.30;99.90;;;-141.84;88.32;19939.84;5030181;28;20229;-62
2023/08/31 02:33:06;;;;;;;1.60;1.30;;;13.40;99.90;;;-141.84;88.88;19935.78;5044018;28;20310;-62
2023/08/31 02:35:35;;;;;;;1.90;1.50;;;13.40;99.90;;;-141.84;87.92;19954.06;5044581;28;20209;-60
2023/08/31 02:38:03;;;;;;;1.55;1.40;;;13.40;99.90;;;-141.84;87.77;19937.81;5044011;28;20720;-62
2023/08/31 02:40:32;;;;;;;1.40;1.30;;;13.30;99.90;;;-141.84;86.77;19968.31;5036883;28;20709;-62
2023/08/31 02:43:00;;;;;;;1.90;1.40;;;13.40;99.90;;;-141.84;87.03;19945.94;5043191;28;20229;-60
2023/08/31 02:45:28;;;;;;;2.47;1.30;;;13.40;99.90;;;-141.84;86.92;19954.06;5043660;28;20316;-60
2023/08/31 02:47:57;;;;;;;3.60;1.47;;;13.40;99.90;;;-141.84;87.28;19943.91;5043840;28;20240;-60
2023/08/31 02:50:26;;;;;;;1.83;1.50;;;13.40;99.90;;;-141.84;87.27;19986.59;5043075;28;20213;-62
2023/08/31 02:52:54;;;;;;;2.00;1.50;;;13.40;99.90;;;-141.84;85.59;20000.81;5019330;28;20234;-60
2023/08/31 02:55:22;;;;;;;2.78;1.90;;;13.50;99.90;;;-141.84;85.72;20002.84;5023627;28;20257;-62
2023/08/31 02:57:50;;;;;;;2.78;1.90;;;13.60;99.90;;;-141.84;85.22;20031.31;5023347;28;20309;-62
2023/08/31 03:00:21;;;;;;;5.05;4.43;;;13.60;99.90;;;-141.84;85.74;20008.94;5023588;28;20336;-63
2023/08/31 03:02:49;;;;;;;1.95;1.70;;;13.60;99.90;;;-141.84;85.04;20041.47;5016137;28;20214;-63
2023/08/31 03:05:21;;;;;;;2.28;2.00;;;13.70;99.90;;;-141.84;85.43;20002.84;5023810;28;20317;-61
2023/08/31 03:07:49;;;;;;;2.75;2.00;;;13.70;99.90;;;-141.84;85.57;20006.91;5023765;28;20237;-60
2023/08/31 03:10:17;;;;;;;2.27;2.03;;;13.70;99.90;;;-141.84;86.05;19992.69;5023493;28;20417;-62
2023/08/31 03:12:45;;;;;;;2.30;2.10;;;13.70;99.90;;;-141.84;87.05;19970.34;5023567;28;20321;-62
2023/08/31 03:15:13;;;;;;;4.45;2.10;;;13.70;99.90;;;-141.84;87.56;20013.00;5026873;28;20230;-61
2023/08/31 03:17:41;;;;;;;2.55;2.25;;;13.70;99.90;;;-141.84;86.17;20002.84;5023541;28;20285;-61
2023/08/31 03:20:11;;;;;;;2.77;2.47;;;13.80;99.90;;;-141.84;86.37;20045.53;5022922;28;20230;-63
2023/08/31 03:22:40;;;;;;;2.63;2.42;;;13.80;99.90;;;-141.84;84.55;20027.25;5015252;28;20312;-62
2023/08/31 03:25:09;;;;;;;3.08;2.40;;;13.80;99.90;;;-141.84;84.98;20055.69;5023340;28;20300;-62
2023/08/31 03:27:37;;;;;;;2.95;2.40;;;13.80;99.90;;;-141.84;84.56;20023.19;5023038;28;20321;-62
2023/08/31 03:30:07;;;;;;;3.13;2.30;;;13.80;99.90;;;-141.84;84.05;20035.38;5023162;28;20698;-62
2023/08/31 03:32:36;;;;;;;2.63;2.42;;;13.90;99.90;;;-141.84;84.19;20076.03;5016004;28;20217;-62
2023/08/31 03:35:05;;;;;;;3.60;2.80;;;13.90;99.90;;;-141.84;84.11;20051.63;5022848;28;20245;-62
2023/08/31 03:37:33;;;;;;;2.53;2.33;;;14.00;99.90;;;-141.84;84.16;20025.22;5023051;28;20230;-63
2023/08/31 03:40:04;;;;;;;4.75;3.20;;;13.90;99.90;;;-141.84;84.95;20025.22;5023189;28;20317;-61
2023/08/31 03:42:33;;;;;;;4.15;2.90;;;13.90;99.90;;;-141.84;84.67;20031.31;5021787;28;20287;-61
2023/08/31 03:45:03;;;;;;;3.10;2.80;;;13.90;99.90;;;-141.84;84.55;20013.00;5041030;28;20256;-61
2023/08/31 03:47:31;;;;;;;2.85;2.60;;;13.90;99.90;;;-141.84;84.91;20004.88;5023234;28;20748;-61
2023/08/31 03:50:00;;;;;;;3.42;3.10;;;13.90;99.90;;;-141.84;85.03;20043.50;5022496;28;20229;-60
2023/08/31 03:52:28;;;;;;;3.13;2.83;;;13.90;99.90;;;-141.84;84.42;20055.69;5004116;28;20338;-60
2023/08/31 03:54:56;;;;;;;3.33;3.03;;;14.10;99.90;;;-141.84;84.31;20049.59;5002262;28;20230;-62
2023/08/31 03:57:27;;;;;;;3.55;3.25;;;13.90;99.90;;;-141.84;84.44;20063.81;5002817;28;20230;-61
2023/08/31 03:59:55;;;;;;;3.17;2.88;;;13.90;99.90;;;-141.84;84.92;20037.41;5002774;28;20211;-62
2023/08/31 04:02:24;;;;;;;4.03;3.45;;;13.90;99.90;;;-141.84;85.72;20053.66;5003461;28;20297;-61
2023/08/31 04:04:52;;;;;;;4.07;3.40;;;13.80;99.90;;;-141.84;85.38;20008.94;4995198;28;20238;-61
2023/08/31 04:07:20;;;;;;;3.97;3.58;;;13.80;99.90;;;-141.84;85.93;19990.66;5001869;28;20320;-62
2023/08/31 04:09:48;;;;;;;4.43;3.67;;;13.80;99.90;;;-141.84;86.14;20031.31;5010676;28;20252;-61
2023/08/31 04:12:17;;;;;;;5.68;4.07;;;13.80;99.90;;;-141.84;86.26;20004.88;5026403;28;20225;-61
2023/08/31 04:14:46;;;;;;;5.22;4.25;;;13.80;99.90;;;-141.84;85.43;20071.97;5023627;28;20309;-62
2023/08/31 04:17:14;;;;;;;7.32;5.00;;;13.80;99.90;;;-141.84;84.96;20041.47;5022192;28;20721;-62
2023/08/31 04:19:42;;;;;;;5.55;5.05;;;13.80;99.90;;;-141.84;83.98;20041.47;5022282;28;20237;-62
2023/08/31 04:22:11;;;;;;;5.05;4.55;;;13.80;99.90;;;-141.84;84.35;20031.31;5017837;28;20489;-63
2023/08/31 04:24:39;;;;;;;6.20;5.13;;;13.90;99.90;;;-141.84;84.23;20017.09;5014719;28;20268;-62
2023/08/31 04:27:08;;;;;;;5.75;5.18;;;13.90;99.90;;;-141.84;84.35;20017.09;5022441;28;20210;-61
2023/08/31 04:29:36;;;;;;;6.15;5.60;;;13.90;99.90;;;-141.84;84.97;20051.63;5022578;28;20245;-62
2023/08/31 04:32:06;;;;;;;5.18;4.68;;;13.90;99.90;;;-141.84;85.93;19982.53;5022281;28;20230;-63
2023/08/31 04:34:35;;;;;;;6.35;5.40;;;13.90;99.90;;;-141.84;85.75;20004.88;5014581;28;20309;-63
2023/08/31 04:37:03;;;;;;;6.60;6.00;;;13.90;99.90;;;-141.84;86.01;20019.13;5022309;28;20253;-62
2023/08/31 04:39:32;;;;;;;9.35;6.60;;;13.80;99.90;;;-141.84;84.10;20049.59;5022351;28;20221;-63
2023/08/31 04:42:00;;;;;;;7.13;6.43;;;13.90;99.90;;;-141.84;83.63;20053.66;5022224;28;20206;-61
2023/08/31 04:44:30;;;;;;;8.10;6.35;;;14.00;99.90;;;-141.84;84.59;20041.47;5018775;28;20233;-60
2023/08/31 04:46:58;;;;;;;8.20;6.47;;;14.00;99.90;;;-141.84;85.02;20023.19;5020657;28;20229;-62
2023/08/31 04:49:27;;;;;;;9.68;6.57;;;13.90;99.90;;;-141.84;84.85;20043.50;5022297;28;20321;-61
2023/08/31 04:51:57;;;;;;;8.20;6.43;;;13.90;99.90;;;-141.84;84.70;20006.91;5008609;28;20230;-61
2023/08/31 04:54:26;;;;;;;7.43;5.80;;;13.90;99.90;;;-141.84;85.03;20008.94;5002346;28;20258;-62
2023/08/31 04:56:54;;;;;;;7.68;6.18;;;13.90;99.90;;;-141.84;84.90;20031.31;4997450;28;20211;-61
2023/08/31 04:59:22;;;;;;;8.57;6.40;;;13.90;99.90;;;-141.84;84.05;20025.22;5003170;28;20213;-61
2023/08/31 05:01:50;;;;;;;7.20;6.47;;;14.00;99.90;;;-141.84;84.46;20041.47;5002472;28;20235;-61
2023/08/31 05:04:18;;;;;;;7.13;6.43;;;14.00;99.90;;;-141.84;84.74;20045.53;5002716;28;20258;-63
2023/08/31 05:06:48;;;;;;;8.45;6.60;;;14.00;99.90;;;-141.84;83.33;20074.00;4994282;28;20258;-63
2023/08/31 05:09:16;;;;;;;9.25;6.47;;;14.10;99.90;;;-141.84;82.05;20071.97;5002285;28;20234;-61
2023/08/31 05:11:44;;;;;;;7.10;6.47;;;14.10;99.90;;;-141.84;81.29;20082.13;5002788;28;20210;-62
2023/08/31 05:14:12;;;;;;;7.75;6.90;;;14.10;99.90;;;-141.84;82.06;20090.25;5021896;28;20691;-62
2023/08/31 05:16:40;;;;;;;8.55;5.88;;;14.10;99.90;;;-141.84;82.05;20069.94;5014640;28;20306;-62
2023/08/31 05:19:09;;;;;;;8.52;6.82;;;14.10;99.90;;;-141.84;83.16;20045.53;5019730;28;20233;-63
2023/08/31 05:21:37;;;;;;;8.10;7.18;;;14.10;99.90;;;-141.84;82.00;20088.22;5025605;28;20226;-62
2023/08/31 05:24:07;;;;;;;8.57;6.32;;;14.20;99.90;;;-141.84;82.00;20092.28;5025539;28;20246;-63
2023/08/31 05:26:35;;;;;;;7.82;6.47;;;14.20;99.90;;;-141.84;82.60;20078.06;5018164;28;20222;-62
2023/08/31 05:29:05;;;;;;;9.43;6.57;;;14.20;99.90;;;-141.84;82.85;20055.69;5025764;28;20261;-61
2023/08/31 05:31:33;;;;;;;9.23;6.50;;;14.30;99.90;;;-141.84;83.13;20094.31;5025680;28;20806;-61
2023/08/31 05:34:02;;;;;;;9.80;6.22;;;14.30;99.90;;;-141.84;82.76;20132.94;5025485;28;20256;-61
2023/08/31 05:36:30;;;;;;;8.65;6.35;;;14.30;99.90;;;-141.84;80.49;20143.09;5020150;28;20238;-61
2023/08/31 05:38:58;;;;;;;7.82;6.38;;;14.40;99.90;;;-141.84;80.36;20114.63;5025091;28;20868;-61
2023/08/31 05:41:28;;;;;;;7.85;6.85;;;14.50;99.90;;;-141.84;79.37;20171.56;5025545;28;20216;-62
2023/08/31 05:43:56;;;;;;;11.35;6.88;;;14.60;99.90;;;-141.84;78.58;20189.84;5025140;28;20341;-63
2023/08/31 05:46:24;;;;;;;7.53;6.72;;;14.70;99.90;;;-141.84;78.18;20171.56;5025048;28;20249;-61
2023/08/31 05:48:53;;;;;;;7.60;6.80;;;14.70;99.90;;;-141.84;78.30;20204.06;5002070;28;20252;-61
2023/08/31 05:51:21;;;;;;;7.95;7.15;;;14.70;99.90;;;-141.84;77.53;20200.00;5004670;28;20233;-62
2023/08/31 05:53:49;;;;;;;8.07;6.45;;;14.80;99.90;;;-141.84;78.31;20220.34;5006055;28;20237;-61
2023/08/31 05:56:17;;;;;;;7.15;6.50;;;14.80;99.90;;;-141.84;78.90;20191.88;5025080;28;20316;-56
2023/08/31 05:58:47;;;;;;;8.48;6.70;;;14.80;99.90;;;-141.84;78.13;20240.66;5017816;28;20249;-56
2023/08/31 06:01:15;;;;;;;7.93;6.43;;;15.00;99.90;;;-141.84;76.77;20289.44;5025002;28;20243;-57
2023/08/31 06:03:43;;;;;;;9.35;7.50;;;15.10;99.90;;;-141.84;75.54;20319.94;5024941;28;20221;-55
2023/08/31 06:06:11;;;;;;;8.13;7.05;;;15.20;99.90;;;-141.84;75.50;20273.19;5024388;28;20226;-57
2023/08/31 06:08:42;;;;;;;9.80;7.50;;;15.30;99.90;;;-141.84;75.37;20372.78;5017163;28;20621;-55
2023/08/31 06:11:10;;;;;;;7.53;6.55;;;15.40;99.90;;;-141.84;75.08;20328.06;5024297;28;20341;-50
2023/08/31 06:13:39;;;;;;;7.05;6.35;;;15.40;99.90;;;-141.84;75.45;20326.03;5036525;28;20262;-51
2023/08/31 06:16:09;;;;;;;8.27;7.03;;;15.40;99.90;;;-141.84;76.11;20301.63;5032612;28;20316;-55
2023/08/31 06:18:37;;;;;;;7.25;6.55;;;15.30;99.90;;;-141.84;76.65;20258.94;5009832;28;20230;-55
2023/08/31 06:21:05;;;;;;;8.15;7.03;;;15.10;99.90;;;-141.84;77.14;20256.91;5024023;28;20240;-54
2023/08/31 06:23:33;;;;;;;8.73;6.80;;;15.20;99.90;;;-141.84;74.79;20324.00;5024727;28;20263;-55
2023/08/31 06:26:02;;;;;;;7.68;6.32;;;15.40;99.90;;;-141.84;73.85;20439.84;5023562;28;20228;-51
2023/08/31 06:28:30;;;;;;;7.60;6.88;;;15.50;99.90;;;-141.84;73.89;20407.34;5016694;28;20277;-54
2023/08/31 06:30:59;;;;;;;8.70;7.38;;;15.70;99.90;;;-141.84;72.43;20425.63;5024226;28;20735;-59
2023/08/31 06:33:28;;;;;;;8.10;6.88;;;15.70;99.90;;;-141.84;72.16;20423.59;5024006;28;20273;-58
2023/08/31 06:35:57;;;;;;;7.03;6.32;;;15.70;99.90;;;-141.84;72.88;20413.44;5024342;28;20249;-59
2023/08/31 06:38:25;;;;;;;7.85;6.80;;;15.80;99.90;;;-141.84;73.39;20399.19;5024358;28;20206;-59
2023/08/31 06:40:58;;;;;;;8.25;7.35;;;15.70;99.90;;;-141.84;73.34;20342.28;5016964;28;20685;-57
2023/08/31 06:43:27;;;;;;;9.70;6.30;;;15.60;99.90;;;-141.84;73.38;20362.63;5035905;28;20328;-58
2023/08/31 06:45:55;;;;;;;7.50;6.82;;;15.60;99.90;;;-141.84;72.66;20382.94;5024057;28;20313;-60
2023/08/31 06:48:35;;;;;;;7.00;6.07;;;15.60;99.90;;;-141.84;73.45;20352.44;5016090;28;20717;-58
2023/08/31 06:51:04;;;;;;;7.22;6.43;;;15.60;99.90;;;-141.84;72.32;20391.06;5023606;28;20218;-59
2023/08/31 06:53:32;;;;;;;8.88;6.45;;;15.60;99.90;;;-141.84;73.29;20393.09;5023988;28;20214;-59
2023/08/31 06:56:01;;;;;;;8.73;6.60;;;15.60;99.90;;;-141.84;72.94;20334.16;5023252;28;20713;-57
2023/08/31 06:58:30;;;;;;;7.07;6.38;;;15.60;99.90;;;-141.84;73.65;20409.38;5023488;28;20261;-58
2023/08/31 07:00:58;;;;;;;8.35;6.35;;;15.50;99.90;;;-141.84;72.89;20374.81;5025235;28;20237;-59
2023/08/31 07:03:26;;;;;;;6.97;6.22;;;15.60;99.90;;;-141.84;72.36;20405.31;5025471;28;20226;-59
2023/08/31 07:05:56;;;;;;;6.30;5.70;;;15.80;99.90;;;-141.84;71.17;20488.63;5025564;28;20633;-58
2023/08/31 07:08:25;;;;;;;5.78;5.25;;;15.90;99.90;;;-141.84;70.67;20508.97;5026007;28;20228;-59
2023/08/31 07:10:53;;;;;;;6.32;5.68;;;16.00;99.90;;;-141.84;71.17;20480.50;5024658;28;20233;-59
2023/08/31 07:13:22;;;;;;;6.78;5.70;;;16.10;99.90;;;-141.84;70.23;20486.59;5044617;28;20269;-58
2023/08/31 07:15:50;;;;;;;6.50;5.50;;;16.10;99.90;;;-141.84;69.91;20500.84;5045176;28;20229;-57
2023/08/31 07:18:18;;;;;;;7.30;5.60;;;16.30;99.90;;;-141.84;70.36;20537.44;5034239;28;20279;-58
2023/08/31 07:20:47;;;;;;;5.95;5.45;;;16.30;99.90;;;-141.84;70.30;20515.06;5019045;28;20202;-58
2023/08/31 07:23:16;;;;;;;6.30;5.70;;;16.30;99.90;;;-141.84;70.42;20508.97;5025267;28;20236;-60
2023/08/31 07:25:45;;;;;;;7.22;5.30;;;16.30;99.90;;;-141.84;69.77;20576.03;5025289;28;20335;-58
2023/08/31 07:28:13;;;;;;;7.40;5.50;;;16.30;99.90;;;-141.84;68.20;20630.94;5023930;28;20306;-59
2023/08/31 07:30:41;;;;;;;5.97;5.47;;;16.60;99.90;;;-141.84;67.02;20679.72;5018190;28;20509;-59
2023/08/31 07:33:10;;;;;;;5.85;5.13;;;16.80;99.90;;;-141.84;67.08;20710.22;5024782;28;20296;-59
2023/08/31 07:35:57;;;;;;;6.47;5.30;;;16.90;99.90;;;-141.84;65.84;20744.78;5024933;28;20585;-59
2023/08/31 07:38:31;;;;;;;5.57;5.07;;;16.90;99.90;;;-141.84;65.55;20785.44;5024964;28;20210;-58
2023/08/31 07:41:01;;;;;;;6.22;5.32;;;17.00;99.90;;;-141.84;64.68;20783.41;5024475;28;20300;-58
2023/08/31 07:43:29;;;;;;;5.97;5.38;;;17.10;99.90;;;-141.84;65.57;20769.16;5036560;28;20233;-58
2023/08/31 07:45:58;;;;;;;6.07;5.47;;;17.10;99.90;;;-141.84;66.14;20716.31;5024748;28;20229;-59
2023/08/31 07:48:26;;;;;;;8.43;6.15;;;17.00;99.90;;;-141.84;65.02;20702.09;5024367;28;20275;-60
2023/08/31 07:50:54;;;;;;;6.55;5.90;;;16.80;99.90;;;-141.84;65.53;20659.38;5019384;28;20268;-59
2023/08/31 07:53:23;;;;;;;8.55;5.90;;;16.70;99.90;;;-141.84;64.81;20681.75;5025445;28;20249;-59
2023/08/31 07:55:57;;;;;;;6.57;5.85;;;16.80;99.90;;;-141.84;65.31;20714.28;5024165;28;20321;-59
2023/08/31 07:58:25;;;;;;;6.30;5.70;;;16.70;99.90;;;-141.84;64.83;20824.06;5024667;28;20264;-56
2023/08/31 08:00:55;;;;;;;5.57;5.07;;;16.90;99.90;;;-141.84;63.87;20852.50;5019605;28;20229;-58
2023/08/31 08:03:25;;;;;;;6.78;5.50;;;17.20;99.90;;;-141.84;61.44;20941.97;5024810;28;20222;-59
2023/08/31 08:05:53;;;;;;;6.20;5.60;;;17.60;99.90;;;-141.84;60.80;21068.00;5024451;28;20213;-59
2023/08/31 08:08:21;;;;;;;5.70;5.07;;;17.90;99.90;;;-141.84;60.30;21078.16;5036025;28;20230;-59
2023/08/31 08:10:55;;;;;;;6.93;5.40;;;18.10;99.90;;;-141.84;59.23;21068.00;5017568;28;20226;-59
2023/08/31 08:13:23;;;;;;;5.30;4.80;;;18.20;99.90;;;-141.84;60.28;21009.03;5037283;28;20766;-58
2023/08/31 08:15:51;;;;;;;6.22;4.88;;;17.90;99.90;;;-141.84;60.88;21051.75;5044321;28;20312;-58
2023/08/31 08:18:19;;;;;;;5.32;4.50;;;17.90;99.90;;;-141.84;61.56;20986.69;5033346;28;20593;-57
2023/08/31 08:20:49;;;;;;;5.78;4.15;;;17.80;99.90;;;-141.84;61.28;21025.31;5017721;28;20214;-58
2023/08/31 08:23:17;;;;;;;4.85;4.35;;;17.80;99.90;;;-141.84;60.29;21090.38;5024200;28;20226;-59
2023/08/31 08:25:46;;;;;;;7.30;4.40;;;17.90;99.90;;;-141.84;61.42;21033.44;5023632;28;20781;-58
2023/08/31 08:28:15;;;;;;;5.35;4.00;;;17.80;99.90;;;-141.84;61.24;21072.06;5023593;28;20240;-59
2023/08/31 08:30:43;;;;;;;7.47;4.40;;;17.80;99.90;;;-141.84;61.10;21070.03;5017743;28;20772;-58
2023/08/31 08:33:12;;;;;;;4.93;4.43;;;17.80;99.90;;;-141.84;60.87;20996.84;5024304;28;20226;-59
2023/08/31 08:35:40;;;;;;;5.22;4.72;;;17.70;99.90;;;-141.84;60.40;20976.53;5024687;28;20210;-59
2023/08/31 08:38:08;;;;;;;4.53;4.13;;;17.70;99.90;;;-141.84;60.87;20972.47;5023724;28;20408;-59
2023/08/31 08:40:37;;;;;;;6.20;4.70;;;17.60;99.90;;;-141.84;61.33;20937.91;5016864;28;20257;-58
2023/08/31 08:43:08;;;;;;;5.78;4.78;;;17.50;99.90;;;-141.84;63.00;20915.53;5023549;28;20329;-59
2023/08/31 08:45:41;;;;;;;5.35;4.80;;;17.30;99.90;;;-141.84;63.12;20852.50;5024136;28;20226;-59
2023/08/31 08:48:10;;;;;;;6.15;5.07;;;17.20;99.90;;;-141.84;63.19;20838.28;5023961;28;20268;-58
2023/08/31 08:50:38;;;;;;;5.07;4.57;;;17.10;99.90;;;-141.84;63.76;20874.88;5015130;28;20195;-59
2023/08/31 08:53:07;;;;;;;5.03;4.20;;;17.00;99.90;;;-141.84;64.30;20895.19;5006270;28;20270;-58
2023/08/31 08:55:35;;;;;;;5.57;4.55;;;17.10;99.90;;;-141.84;63.24;20956.19;5007850;28;20258;-59
2023/08/31 08:58:04;;;;;;;6.25;5.20;;;17.20;99.90;;;-141.84;62.89;20978.56;5007676;28;20308;-59
2023/08/31 09:00:33;;;;;;;7.30;4.78;;;17.40;99.90;;;-141.84;61.60;21033.44;5000854;28;20309;-59
2023/08/31 09:03:03;;;;;;;6.85;4.93;;;17.60;99.90;;;-141.84;61.72;21059.88;5010694;28;20264;-59
2023/08/31 09:05:33;;;;;;;5.28;4.78;;;17.70;99.90;;;-141.84;60.03;21092.41;5028400;28;20206;-59
2023/08/31 09:08:03;;;;;;;6.20;4.50;;;17.90;99.90;;;-141.84;60.65;21139.16;5025855;28;20258;-58
2023/08/31 09:10:40;;;;;;;6.05;4.50;;;18.10;99.90;;;-141.84;59.89;21086.31;5000824;28;20227;-60
2023/08/31 09:13:10;;;;;;;7.50;4.32;;;18.00;99.90;;;-141.84;60.06;21114.75;5018832;28;20226;-59
2023/08/31 09:15:42;;;;;;;6.53;4.88;;;18.10;99.90;;;-141.84;60.16;21114.75;5027746;28;20229;-59
2023/08/31 09:18:16;;;;;;;5.38;4.72;;;18.00;99.90;;;-141.84;60.30;21112.72;5016661;28;20232;-60
2023/08/31 09:20:47;;;;;;;5.38;4.57;;;18.00;99.90;;;-141.84;59.36;21114.75;5001739;28;20206;-58
2023/08/31 09:23:16;;;;;;;5.15;3.72;;;18.10;99.90;;;-141.84;60.44;21051.75;5027265;28;20653;-58
2023/08/31 09:25:48;;;;;;;4.88;4.20;;;18.10;99.90;;;-141.84;60.07;21104.59;5027640;28;20240;-59
2023/08/31 09:28:17;;;;;;;5.28;4.57;;;18.00;99.90;;;-141.84;61.59;21011.09;5027268;28;20226;-59
2023/08/31 09:30:48;;;;;;;7.22;5.32;;;17.80;99.90;;;-141.84;66.66;20858.59;5020605;28;20225;-59
2023/08/31 09:33:20;;;;;;;7.40;5.63;;;17.40;99.90;;;-141.84;69.53;20724.44;5027239;28;20225;-58
2023/08/31 09:35:51;;;;;;;5.55;4.85;;;16.90;99.90;;;-141.84;71.25;20683.78;5027495;28;20202;-57
2023/08/31 09:38:20;;;;;;;4.28;3.20;;;16.70;99.90;;;-141.84;67.82;20620.78;5007435;28;20309;-59
2023/08/31 09:40:48;;;;;;;4.60;3.42;;;16.40;99.90;;;-141.84;68.85;20596.38;4984900;28;20352;-57
2023/08/31 09:43:21;;;;;;;3.65;3.00;;;16.20;99.90;;;-141.84;69.37;20661.44;5011066;28;20308;-58
2023/08/31 09:45:51;;;;;;;3.20;2.92;;;16.30;99.90;;;-141.84;68.61;20702.09;5026987;28;20228;-59
2023/08/31 09:48:21;;;;;;;3.95;3.20;;;16.40;99.90;;;-141.84;69.51;20724.44;5026556;28;20699;-59
2023/08/31 09:50:52;;;;;;;3.10;2.80;;;16.40;99.90;;;-141.84;65.36;20759.00;5015673;28;20211;-58
2023/08/31 09:53:21;;;;;;;3.03;2.50;;;16.60;99.90;;;-141.84;65.84;20767.13;5027169;28;20258;-58
2023/08/31 09:55:51;;;;;;;2.47;2.03;;;16.70;99.90;;;-141.84;64.06;20746.81;5010564;28;20244;-58
2023/08/31 09:58:22;;;;;;;2.90;2.60;;;16.70;99.90;;;-141.84;63.14;20773.22;5007550;28;20333;-58
2023/08/31 10:00:52;;;;;;;2.97;2.50;;;16.80;99.90;;;-141.84;63.19;20793.56;5015934;28;20321;-59
2023/08/31 10:03:22;;;;;;;3.38;2.30;;;16.90;99.90;;;-141.84;63.12;20830.16;5025938;28;20284;-59
2023/08/31 10:05:51;;;;;;;3.33;2.63;;;17.00;99.90;;;-141.84;63.17;20874.88;5026680;28;20210;-58
2023/08/31 10:08:19;;;;;;;3.05;2.75;;;17.20;99.90;;;-141.84;60.75;20895.19;5042644;28;20302;-59
2023/08/31 10:10:48;;;;;;;3.85;2.90;;;17.30;99.90;;;-141.84;61.24;20972.47;5019457;28;20586;-58
2023/08/31 10:13:17;;;;;;;3.25;2.95;;;17.60;99.90;;;-141.84;60.04;21029.38;5038709;28;20324;-57